sensor_id;sensor_type;location;lat;lon;timestamp;P1;durP1;ratioP1;P2;durP2;ratioP2
4434;SDS011;46552;52.150;8.428;2024-03-22T00:02:24;45.30;;;26.90;;
4434;SDS011;46552;52.150;8.428;2024-03-22T00:04:52;45.43;;;26.77;;
4434;SDS011;46552;52.150;8.428;2024-03-22T00:07:19;46.30;;;25.23;;
4434;SDS011;46552;52.150;8.428;2024-03-22T00:09:46;55.30;;;29.07;;
4434;SDS011;46552;52.150;8.428;2024-03-22T00:12:12;49.43;;;27.20;;
4434;SDS011;46552;52.150;8.428;2024-03-22T00:14:39;49.70;;;26.33;;
4434;SDS011;46552;52.150;8.428;2024-03-22T00:17:06;49.90;;;29.40;;
4434;SDS011;46552;52.150;8.428;2024-03-22T00:19:34;50.90;;;28.23;;
4434;SDS011;46552;52.150;8.428;2024-03-22T00:22:00;52.07;;;28.97;;
4434;SDS011;46552;52.150;8.428;2024-03-22T00:24:28;52.63;;;29.43;;
4434;SDS011;46552;52.150;8.428;2024-03-22T00:26:54;54.27;;;28.43;;
4434;SDS011;46552;52.150;8.428;2024-03-22T00:29:21;48.27;;;26.73;;
4434;SDS011;46552;52.150;8.428;2024-03-22T00:31:47;54.53;;;30.67;;
4434;SDS011;46552;52.150;8.428;2024-03-22T00:34:14;48.40;;;28.43;;
4434;SDS011;46552;52.150;8.428;2024-03-22T00:36:43;53.33;;;28.70;;
4434;SDS011;46552;52.150;8.428;2024-03-22T00:39:10;55.30;;;29.83;;
4434;SDS011;46552;52.150;8.428;2024-03-22T00:41:37;59.93;;;28.90;;
4434;SDS011;46552;52.150;8.428;2024-03-22T00:44:05;58.73;;;31.10;;
4434;SDS011;46552;52.150;8.428;2024-03-22T00:46:31;52.90;;;30.30;;
4434;SDS011;46552;52.150;8.428;2024-03-22T00:48:58;57.83;;;31.77;;
4434;SDS011;46552;52.150;8.428;2024-03-22T00:51:24;60.97;;;30.90;;
4434;SDS011;46552;52.150;8.428;2024-03-22T00:53:54;51.87;;;28.97;;
4434;SDS011;46552;52.150;8.428;2024-03-22T00:56:21;60.47;;;33.50;;
4434;SDS011;46552;52.150;8.428;2024-03-22T00:58:48;59.30;;;31.20;;
4434;SDS011;46552;52.150;8.428;2024-03-22T01:01:14;58.73;;;32.10;;
4434;SDS011;46552;52.150;8.428;2024-03-22T01:03:41;68.63;;;34.47;;
4434;SDS011;46552;52.150;8.428;2024-03-22T01:06:08;61.73;;;30.70;;
4434;SDS011;46552;52.150;8.428;2024-03-22T01:08:35;69.20;;;32.87;;
4434;SDS011;46552;52.150;8.428;2024-03-22T01:11:03;58.53;;;32.37;;
4434;SDS011;46552;52.150;8.428;2024-03-22T01:13:31;59.57;;;33.00;;
4434;SDS011;46552;52.150;8.428;2024-03-22T01:15:57;64.53;;;36.37;;
4434;SDS011;46552;52.150;8.428;2024-03-22T01:18:24;76.53;;;36.33;;
4434;SDS011;46552;52.150;8.428;2024-03-22T01:20:50;74.90;;;36.37;;
4434;SDS011;46552;52.150;8.428;2024-03-22T01:23:17;64.10;;;33.90;;
4434;SDS011;46552;52.150;8.428;2024-03-22T01:25:45;72.57;;;35.50;;
4434;SDS011;46552;52.150;8.428;2024-03-22T01:28:13;70.97;;;36.20;;
4434;SDS011;46552;52.150;8.428;2024-03-22T01:30:40;60.53;;;34.77;;
4434;SDS011;46552;52.150;8.428;2024-03-22T01:33:09;74.00;;;38.17;;
4434;SDS011;46552;52.150;8.428;2024-03-22T01:35:35;68.97;;;34.10;;
4434;SDS011;46552;52.150;8.428;2024-03-22T01:38:02;73.03;;;36.97;;
4434;SDS011;46552;52.150;8.428;2024-03-22T01:40:28;67.87;;;34.47;;
4434;SDS011;46552;52.150;8.428;2024-03-22T01:42:56;65.97;;;35.13;;
4434;SDS011;46552;52.150;8.428;2024-03-22T01:45:25;74.37;;;34.70;;
4434;SDS011;46552;52.150;8.428;2024-03-22T01:47:52;82.97;;;38.53;;
4434;SDS011;46552;52.150;8.428;2024-03-22T01:50:19;79.33;;;38.37;;
4434;SDS011;46552;52.150;8.428;2024-03-22T01:52:46;75.47;;;35.33;;
4434;SDS011;46552;52.150;8.428;2024-03-22T01:55:13;77.63;;;38.07;;
4434;SDS011;46552;52.150;8.428;2024-03-22T01:57:42;72.10;;;37.30;;
4434;SDS011;46552;52.150;8.428;2024-03-22T02:00:09;78.97;;;37.67;;
4434;SDS011;46552;52.150;8.428;2024-03-22T02:02:39;79.60;;;38.27;;
4434;SDS011;46552;52.150;8.428;2024-03-22T02:05:11;76.97;;;38.70;;
4434;SDS011;46552;52.150;8.428;2024-03-22T02:07:40;77.10;;;37.90;;
4434;SDS011;46552;52.150;8.428;2024-03-22T02:10:07;75.17;;;36.63;;
4434;SDS011;46552;52.150;8.428;2024-03-22T02:12:37;76.10;;;35.57;;
4434;SDS011;46552;52.150;8.428;2024-03-22T02:15:04;78.53;;;35.97;;
4434;SDS011;46552;52.150;8.428;2024-03-22T02:17:32;77.37;;;38.57;;
4434;SDS011;46552;52.150;8.428;2024-03-22T02:20:01;79.90;;;38.60;;
4434;SDS011;46552;52.150;8.428;2024-03-22T02:22:29;80.77;;;33.90;;
4434;SDS011;46552;52.150;8.428;2024-03-22T02:24:58;77.10;;;36.27;;
4434;SDS011;46552;52.150;8.428;2024-03-22T02:27:25;85.53;;;39.70;;
4434;SDS011;46552;52.150;8.428;2024-03-22T02:29:53;78.67;;;36.83;;
4434;SDS011;46552;52.150;8.428;2024-03-22T02:32:19;81.07;;;36.20;;
4434;SDS011;46552;52.150;8.428;2024-03-22T02:34:46;78.60;;;34.03;;
4434;SDS011;46552;52.150;8.428;2024-03-22T02:37:12;71.60;;;34.50;;
4434;SDS011;46552;52.150;8.428;2024-03-22T02:39:40;76.80;;;35.23;;
4434;SDS011;46552;52.150;8.428;2024-03-22T02:42:10;71.93;;;35.40;;
4434;SDS011;46552;52.150;8.428;2024-03-22T02:44:37;78.23;;;36.70;;
4434;SDS011;46552;52.150;8.428;2024-03-22T02:47:07;82.27;;;36.90;;
4434;SDS011;46552;52.150;8.428;2024-03-22T02:49:34;76.07;;;33.60;;
4434;SDS011;46552;52.150;8.428;2024-03-22T02:52:02;74.53;;;33.50;;
4434;SDS011;46552;52.150;8.428;2024-03-22T02:54:29;73.77;;;36.43;;
4434;SDS011;46552;52.150;8.428;2024-03-22T02:56:56;64.93;;;33.23;;
4434;SDS011;46552;52.150;8.428;2024-03-22T02:59:26;68.83;;;34.40;;
4434;SDS011;46552;52.150;8.428;2024-03-22T03:01:54;76.80;;;34.70;;
4434;SDS011;46552;52.150;8.428;2024-03-22T03:04:20;83.97;;;34.50;;
4434;SDS011;46552;52.150;8.428;2024-03-22T03:06:47;78.53;;;36.63;;
4434;SDS011;46552;52.150;8.428;2024-03-22T03:09:14;72.63;;;34.37;;
4434;SDS011;46552;52.150;8.428;2024-03-22T03:11:42;81.83;;;36.70;;
4434;SDS011;46552;52.150;8.428;2024-03-22T03:14:08;77.70;;;36.47;;
4434;SDS011;46552;52.150;8.428;2024-03-22T03:16:37;72.67;;;33.40;;
4434;SDS011;46552;52.150;8.428;2024-03-22T03:19:03;74.37;;;34.33;;
4434;SDS011;46552;52.150;8.428;2024-03-22T03:21:30;87.87;;;39.40;;
4434;SDS011;46552;52.150;8.428;2024-03-22T03:23:56;66.23;;;33.00;;
4434;SDS011;46552;52.150;8.428;2024-03-22T03:26:23;77.07;;;34.40;;
4434;SDS011;46552;52.150;8.428;2024-03-22T03:28:49;79.93;;;35.97;;
4434;SDS011;46552;52.150;8.428;2024-03-22T03:31:17;85.13;;;36.80;;
4434;SDS011;46552;52.150;8.428;2024-03-22T03:33:44;77.40;;;32.60;;
4434;SDS011;46552;52.150;8.428;2024-03-22T03:36:12;72.70;;;33.23;;
4434;SDS011;46552;52.150;8.428;2024-03-22T03:38:39;77.03;;;34.50;;
4434;SDS011;46552;52.150;8.428;2024-03-22T03:41:06;80.00;;;36.23;;
4434;SDS011;46552;52.150;8.428;2024-03-22T03:43:33;86.47;;;37.80;;
4434;SDS011;46552;52.150;8.428;2024-03-22T03:46:00;70.00;;;33.80;;
4434;SDS011;46552;52.150;8.428;2024-03-22T03:48:26;74.07;;;34.03;;
4434;SDS011;46552;52.150;8.428;2024-03-22T03:50:55;77.03;;;34.23;;
4434;SDS011;46552;52.150;8.428;2024-03-22T03:53:24;78.27;;;32.67;;
4434;SDS011;46552;52.150;8.428;2024-03-22T03:55:51;69.60;;;32.17;;
4434;SDS011;46552;52.150;8.428;2024-03-22T03:58:18;78.07;;;34.73;;
4434;SDS011;46552;52.150;8.428;2024-03-22T04:00:45;67.90;;;34.33;;
4434;SDS011;46552;52.150;8.428;2024-03-22T04:03:11;93.67;;;36.17;;
4434;SDS011;46552;52.150;8.428;2024-03-22T04:05:38;77.80;;;34.07;;
4434;SDS011;46552;52.150;8.428;2024-03-22T04:08:07;86.03;;;33.83;;
4434;SDS011;46552;52.150;8.428;2024-03-22T04:10:34;75.83;;;33.90;;
4434;SDS011;46552;52.150;8.428;2024-03-22T04:13:00;82.70;;;35.83;;
4434;SDS011;46552;52.150;8.428;2024-03-22T04:15:27;82.67;;;33.00;;
4434;SDS011;46552;52.150;8.428;2024-03-22T04:17:55;68.83;;;31.83;;
4434;SDS011;46552;52.150;8.428;2024-03-22T04:20:23;72.70;;;32.40;;
4434;SDS011;46552;52.150;8.428;2024-03-22T04:22:49;75.37;;;34.50;;
4434;SDS011;46552;52.150;8.428;2024-03-22T04:25:19;71.77;;;32.70;;
4434;SDS011;46552;52.150;8.428;2024-03-22T04:27:46;74.03;;;32.60;;
4434;SDS011;46552;52.150;8.428;2024-03-22T04:30:14;73.07;;;31.83;;
4434;SDS011;46552;52.150;8.428;2024-03-22T04:32:40;77.60;;;31.70;;
4434;SDS011;46552;52.150;8.428;2024-03-22T04:35:09;72.23;;;31.07;;
4434;SDS011;46552;52.150;8.428;2024-03-22T04:37:35;79.40;;;33.23;;
4434;SDS011;46552;52.150;8.428;2024-03-22T04:40:03;71.77;;;33.63;;
4434;SDS011;46552;52.150;8.428;2024-03-22T04:42:32;75.23;;;32.80;;
4434;SDS011;46552;52.150;8.428;2024-03-22T04:44:59;72.80;;;32.93;;
4434;SDS011;46552;52.150;8.428;2024-03-22T04:47:27;73.63;;;31.00;;
4434;SDS011;46552;52.150;8.428;2024-03-22T04:49:53;83.03;;;31.87;;
4434;SDS011;46552;52.150;8.428;2024-03-22T04:52:20;65.83;;;31.20;;
4434;SDS011;46552;52.150;8.428;2024-03-22T04:54:46;64.53;;;31.43;;
4434;SDS011;46552;52.150;8.428;2024-03-22T04:57:14;72.53;;;31.67;;
4434;SDS011;46552;52.150;8.428;2024-03-22T04:59:43;73.53;;;32.70;;
4434;SDS011;46552;52.150;8.428;2024-03-22T05:02:10;81.37;;;34.47;;
4434;SDS011;46552;52.150;8.428;2024-03-22T05:04:37;76.47;;;33.60;;
4434;SDS011;46552;52.150;8.428;2024-03-22T05:07:03;78.70;;;35.80;;
4434;SDS011;46552;52.150;8.428;2024-03-22T05:09:31;67.90;;;32.27;;
4434;SDS011;46552;52.150;8.428;2024-03-22T05:11:58;76.97;;;32.70;;
4434;SDS011;46552;52.150;8.428;2024-03-22T05:14:25;71.17;;;29.27;;
4434;SDS011;46552;52.150;8.428;2024-03-22T05:16:53;66.13;;;30.97;;
4434;SDS011;46552;52.150;8.428;2024-03-22T05:19:20;72.37;;;31.70;;
4434;SDS011;46552;52.150;8.428;2024-03-22T05:21:46;75.20;;;32.77;;
4434;SDS011;46552;52.150;8.428;2024-03-22T05:24:14;78.50;;;30.93;;
4434;SDS011;46552;52.150;8.428;2024-03-22T05:26:40;74.23;;;31.80;;
4434;SDS011;46552;52.150;8.428;2024-03-22T05:29:08;64.90;;;30.10;;
4434;SDS011;46552;52.150;8.428;2024-03-22T05:31:36;81.97;;;33.63;;
4434;SDS011;46552;52.150;8.428;2024-03-22T05:34:14;73.30;;;32.83;;
4434;SDS011;46552;52.150;8.428;2024-03-22T05:36:41;65.50;;;32.10;;
4434;SDS011;46552;52.150;8.428;2024-03-22T05:39:09;72.77;;;32.47;;
4434;SDS011;46552;52.150;8.428;2024-03-22T05:41:35;77.87;;;31.00;;
4434;SDS011;46552;52.150;8.428;2024-03-22T05:44:03;68.77;;;33.07;;
4434;SDS011;46552;52.150;8.428;2024-03-22T05:46:29;72.87;;;30.57;;
4434;SDS011;46552;52.150;8.428;2024-03-22T05:48:56;64.37;;;31.20;;
4434;SDS011;46552;52.150;8.428;2024-03-22T05:51:25;64.67;;;30.87;;
4434;SDS011;46552;52.150;8.428;2024-03-22T05:53:52;67.83;;;29.80;;
4434;SDS011;46552;52.150;8.428;2024-03-22T05:56:18;72.27;;;30.47;;
4434;SDS011;46552;52.150;8.428;2024-03-22T05:58:46;72.00;;;31.10;;
4434;SDS011;46552;52.150;8.428;2024-03-22T06:01:12;60.13;;;31.57;;
4434;SDS011;46552;52.150;8.428;2024-03-22T06:03:40;83.33;;;33.00;;
4434;SDS011;46552;52.150;8.428;2024-03-22T06:06:07;81.57;;;33.00;;
4434;SDS011;46552;52.150;8.428;2024-03-22T06:08:35;74.20;;;32.50;;
4434;SDS011;46552;52.150;8.428;2024-03-22T06:11:04;65.00;;;29.23;;
4434;SDS011;46552;52.150;8.428;2024-03-22T06:13:34;60.23;;;29.00;;
4434;SDS011;46552;52.150;8.428;2024-03-22T06:16:01;62.50;;;27.40;;
4434;SDS011;46552;52.150;8.428;2024-03-22T06:18:28;61.47;;;29.67;;
4434;SDS011;46552;52.150;8.428;2024-03-22T06:20:55;62.13;;;30.13;;
4434;SDS011;46552;52.150;8.428;2024-03-22T06:23:22;67.27;;;28.90;;
4434;SDS011;46552;52.150;8.428;2024-03-22T06:25:52;57.50;;;27.30;;
4434;SDS011;46552;52.150;8.428;2024-03-22T06:28:20;65.90;;;30.90;;
4434;SDS011;46552;52.150;8.428;2024-03-22T06:30:46;69.37;;;28.17;;
4434;SDS011;46552;52.150;8.428;2024-03-22T06:33:13;65.30;;;30.67;;
4434;SDS011;46552;52.150;8.428;2024-03-22T06:35:40;63.43;;;26.77;;
4434;SDS011;46552;52.150;8.428;2024-03-22T06:38:08;61.77;;;28.87;;
4434;SDS011;46552;52.150;8.428;2024-03-22T06:40:34;56.17;;;27.17;;
4434;SDS011;46552;52.150;8.428;2024-03-22T06:43:03;78.43;;;30.07;;
4434;SDS011;46552;52.150;8.428;2024-03-22T06:45:29;62.73;;;27.93;;
4434;SDS011;46552;52.150;8.428;2024-03-22T06:47:56;62.97;;;30.93;;
4434;SDS011;46552;52.150;8.428;2024-03-22T06:50:22;68.30;;;28.83;;
4434;SDS011;46552;52.150;8.428;2024-03-22T06:52:50;59.30;;;28.30;;
4434;SDS011;46552;52.150;8.428;2024-03-22T06:55:17;59.33;;;25.90;;
4434;SDS011;46552;52.150;8.428;2024-03-22T06:57:45;58.37;;;28.60;;
4434;SDS011;46552;52.150;8.428;2024-03-22T07:00:14;67.93;;;28.30;;
4434;SDS011;46552;52.150;8.428;2024-03-22T07:02:42;54.73;;;27.30;;
4434;SDS011;46552;52.150;8.428;2024-03-22T07:05:10;66.57;;;28.43;;
4434;SDS011;46552;52.150;8.428;2024-03-22T07:07:38;64.90;;;28.07;;
4434;SDS011;46552;52.150;8.428;2024-03-22T07:10:04;58.90;;;27.03;;
4434;SDS011;46552;52.150;8.428;2024-03-22T07:12:33;61.73;;;26.73;;
4434;SDS011;46552;52.150;8.428;2024-03-22T07:14:59;68.20;;;28.03;;
4434;SDS011;46552;52.150;8.428;2024-03-22T07:17:29;59.23;;;26.77;;
4434;SDS011;46552;52.150;8.428;2024-03-22T07:19:55;64.63;;;27.13;;
4434;SDS011;46552;52.150;8.428;2024-03-22T07:22:22;54.37;;;26.73;;
4434;SDS011;46552;52.150;8.428;2024-03-22T07:24:48;56.50;;;27.50;;
4434;SDS011;46552;52.150;8.428;2024-03-22T07:27:16;62.70;;;27.70;;
4434;SDS011;46552;52.150;8.428;2024-03-22T07:29:43;58.20;;;25.60;;
4434;SDS011;46552;52.150;8.428;2024-03-22T07:32:11;50.00;;;24.53;;
4434;SDS011;46552;52.150;8.428;2024-03-22T07:34:38;53.50;;;25.70;;
4434;SDS011;46552;52.150;8.428;2024-03-22T07:37:06;57.10;;;27.30;;
4434;SDS011;46552;52.150;8.428;2024-03-22T07:39:32;52.93;;;25.80;;
4434;SDS011;46552;52.150;8.428;2024-03-22T07:42:00;55.20;;;24.40;;
4434;SDS011;46552;52.150;8.428;2024-03-22T07:44:28;49.97;;;25.33;;
4434;SDS011;46552;52.150;8.428;2024-03-22T07:46:55;52.00;;;25.87;;
4434;SDS011;46552;52.150;8.428;2024-03-22T07:49:22;57.93;;;29.97;;
4434;SDS011;46552;52.150;8.428;2024-03-22T07:51:51;57.33;;;25.33;;
4434;SDS011;46552;52.150;8.428;2024-03-22T07:54:18;52.97;;;27.00;;
4434;SDS011;46552;52.150;8.428;2024-03-22T07:56:45;50.30;;;25.67;;
4434;SDS011;46552;52.150;8.428;2024-03-22T07:59:12;46.87;;;24.40;;
4434;SDS011;46552;52.150;8.428;2024-03-22T08:01:39;51.20;;;25.57;;
4434;SDS011;46552;52.150;8.428;2024-03-22T08:04:06;50.70;;;26.17;;
4434;SDS011;46552;52.150;8.428;2024-03-22T08:06:33;45.67;;;23.90;;
4434;SDS011;46552;52.150;8.428;2024-03-22T08:09:01;46.87;;;24.50;;
4434;SDS011;46552;52.150;8.428;2024-03-22T08:11:28;49.60;;;26.63;;
4434;SDS011;46552;52.150;8.428;2024-03-22T08:13:54;59.23;;;28.77;;
4434;SDS011;46552;52.150;8.428;2024-03-22T08:16:27;51.47;;;25.07;;
4434;SDS011;46552;52.150;8.428;2024-03-22T08:18:53;54.40;;;25.57;;
4434;SDS011;46552;52.150;8.428;2024-03-22T08:21:21;55.27;;;27.20;;
4434;SDS011;46552;52.150;8.428;2024-03-22T08:23:47;56.73;;;26.27;;
4434;SDS011;46552;52.150;8.428;2024-03-22T08:26:17;47.77;;;26.53;;
4434;SDS011;46552;52.150;8.428;2024-03-22T08:28:43;52.10;;;27.00;;
4434;SDS011;46552;52.150;8.428;2024-03-22T08:31:11;53.90;;;28.57;;
4434;SDS011;46552;52.150;8.428;2024-03-22T08:33:37;49.13;;;25.93;;
4434;SDS011;46552;52.150;8.428;2024-03-22T08:36:05;51.90;;;27.17;;
4434;SDS011;46552;52.150;8.428;2024-03-22T08:38:32;55.67;;;28.53;;
4434;SDS011;46552;52.150;8.428;2024-03-22T08:41:00;59.27;;;27.40;;
4434;SDS011;46552;52.150;8.428;2024-03-22T08:43:27;51.47;;;26.30;;
4434;SDS011;46552;52.150;8.428;2024-03-22T08:45:55;63.77;;;29.80;;
4434;SDS011;46552;52.150;8.428;2024-03-22T08:48:21;50.87;;;27.87;;
4434;SDS011;46552;52.150;8.428;2024-03-22T08:50:48;51.27;;;27.33;;
4434;SDS011;46552;52.150;8.428;2024-03-22T08:53:14;49.83;;;27.57;;
4434;SDS011;46552;52.150;8.428;2024-03-22T08:55:45;42.30;;;26.87;;
4434;SDS011;46552;52.150;8.428;2024-03-22T08:58:12;57.87;;;27.40;;
4434;SDS011;46552;52.150;8.428;2024-03-22T09:00:44;53.53;;;27.70;;
4434;SDS011;46552;52.150;8.428;2024-03-22T09:03:10;54.27;;;27.70;;
4434;SDS011;46552;52.150;8.428;2024-03-22T09:05:39;54.23;;;27.67;;
4434;SDS011;46552;52.150;8.428;2024-03-22T09:08:06;49.90;;;27.03;;
4434;SDS011;46552;52.150;8.428;2024-03-22T09:10:35;52.70;;;29.23;;
4434;SDS011;46552;52.150;8.428;2024-03-22T09:13:01;45.00;;;26.33;;
4434;SDS011;46552;52.150;8.428;2024-03-22T09:15:28;49.37;;;27.33;;
4434;SDS011;46552;52.150;8.428;2024-03-22T09:17:56;46.20;;;24.80;;
4434;SDS011;46552;52.150;8.428;2024-03-22T09:20:23;48.73;;;28.70;;
4434;SDS011;46552;52.150;8.428;2024-03-22T09:22:49;54.73;;;26.17;;
4434;SDS011;46552;52.150;8.428;2024-03-22T09:25:17;46.97;;;26.60;;
4434;SDS011;46552;52.150;8.428;2024-03-22T09:27:45;43.53;;;26.17;;
4434;SDS011;46552;52.150;8.428;2024-03-22T09:30:12;39.30;;;22.57;;
4434;SDS011;46552;52.150;8.428;2024-03-22T09:32:39;55.30;;;26.00;;
4434;SDS011;46552;52.150;8.428;2024-03-22T09:35:09;51.13;;;28.10;;
4434;SDS011;46552;52.150;8.428;2024-03-22T09:37:39;48.10;;;25.83;;
4434;SDS011;46552;52.150;8.428;2024-03-22T09:40:07;45.10;;;24.93;;
4434;SDS011;46552;52.150;8.428;2024-03-22T09:42:34;55.63;;;25.07;;
4434;SDS011;46552;52.150;8.428;2024-03-22T09:45:06;49.70;;;26.20;;
4434;SDS011;46552;52.150;8.428;2024-03-22T09:47:35;47.00;;;24.60;;
4434;SDS011;46552;52.150;8.428;2024-03-22T09:50:04;48.47;;;25.40;;
4434;SDS011;46552;52.150;8.428;2024-03-22T09:52:35;39.97;;;22.00;;
4434;SDS011;46552;52.150;8.428;2024-03-22T09:55:04;42.30;;;24.37;;
4434;SDS011;46552;52.150;8.428;2024-03-22T09:57:31;43.83;;;23.03;;
4434;SDS011;46552;52.150;8.428;2024-03-22T10:00:02;45.57;;;24.17;;
4434;SDS011;46552;52.150;8.428;2024-03-22T10:02:31;43.73;;;21.83;;
4434;SDS011;46552;52.150;8.428;2024-03-22T10:04:59;43.73;;;24.20;;
4434;SDS011;46552;52.150;8.428;2024-03-22T10:07:27;38.93;;;21.00;;
4434;SDS011;46552;52.150;8.428;2024-03-22T10:09:58;43.60;;;21.23;;
4434;SDS011;46552;52.150;8.428;2024-03-22T10:12:26;34.47;;;21.07;;
4434;SDS011;46552;52.150;8.428;2024-03-22T10:14:54;46.13;;;20.50;;
4434;SDS011;46552;52.150;8.428;2024-03-22T10:17:21;36.83;;;21.43;;
4434;SDS011;46552;52.150;8.428;2024-03-22T10:19:48;42.63;;;21.60;;
4434;SDS011;46552;52.150;8.428;2024-03-22T10:22:15;37.00;;;19.70;;
4434;SDS011;46552;52.150;8.428;2024-03-22T10:24:43;36.53;;;20.40;;
4434;SDS011;46552;52.150;8.428;2024-03-22T10:27:11;40.37;;;21.17;;
4434;SDS011;46552;52.150;8.428;2024-03-22T10:29:39;40.83;;;20.37;;
4434;SDS011;46552;52.150;8.428;2024-03-22T10:32:06;45.20;;;20.90;;
4434;SDS011;46552;52.150;8.428;2024-03-22T10:34:35;41.00;;;21.87;;
4434;SDS011;46552;52.150;8.428;2024-03-22T10:37:01;37.57;;;20.00;;
4434;SDS011;46552;52.150;8.428;2024-03-22T10:39:31;45.23;;;22.73;;
4434;SDS011;46552;52.150;8.428;2024-03-22T10:41:59;35.07;;;19.90;;
4434;SDS011;46552;52.150;8.428;2024-03-22T10:44:27;40.40;;;19.40;;
4434;SDS011;46552;52.150;8.428;2024-03-22T10:46:55;37.03;;;20.10;;
4434;SDS011;46552;52.150;8.428;2024-03-22T10:49:27;40.43;;;22.10;;
4434;SDS011;46552;52.150;8.428;2024-03-22T10:51:56;37.40;;;20.80;;
4434;SDS011;46552;52.150;8.428;2024-03-22T10:54:27;37.87;;;20.03;;
4434;SDS011;46552;52.150;8.428;2024-03-22T10:56:58;35.47;;;19.83;;
4434;SDS011;46552;52.150;8.428;2024-03-22T10:59:25;34.20;;;19.57;;
4434;SDS011;46552;52.150;8.428;2024-03-22T11:02:02;34.20;;;19.67;;
4434;SDS011;46552;52.150;8.428;2024-03-22T11:04:32;39.57;;;21.40;;
4434;SDS011;46552;52.150;8.428;2024-03-22T11:06:59;45.50;;;22.33;;
4434;SDS011;46552;52.150;8.428;2024-03-22T11:09:28;33.87;;;19.40;;
4434;SDS011;46552;52.150;8.428;2024-03-22T11:11:56;39.90;;;21.83;;
4434;SDS011;46552;52.150;8.428;2024-03-22T11:14:24;33.57;;;19.20;;
4434;SDS011;46552;52.150;8.428;2024-03-22T11:16:52;41.63;;;21.20;;
4434;SDS011;46552;52.150;8.428;2024-03-22T11:19:20;39.23;;;20.87;;
4434;SDS011;46552;52.150;8.428;2024-03-22T11:21:46;31.80;;;20.47;;
4434;SDS011;46552;52.150;8.428;2024-03-22T11:24:15;39.27;;;19.67;;
4434;SDS011;46552;52.150;8.428;2024-03-22T11:26:41;41.43;;;21.43;;
4434;SDS011;46552;52.150;8.428;2024-03-22T11:29:10;49.57;;;19.37;;
4434;SDS011;46552;52.150;8.428;2024-03-22T11:31:38;35.67;;;21.57;;
4434;SDS011;46552;52.150;8.428;2024-03-22T11:34:06;39.07;;;20.40;;
4434;SDS011;46552;52.150;8.428;2024-03-22T11:36:35;48.43;;;23.00;;
4434;SDS011;46552;52.150;8.428;2024-03-22T11:39:02;38.50;;;21.70;;
4434;SDS011;46552;52.150;8.428;2024-03-22T11:41:29;39.37;;;23.10;;
4434;SDS011;46552;52.150;8.428;2024-03-22T11:43:57;46.07;;;23.50;;
4434;SDS011;46552;52.150;8.428;2024-03-22T11:46:25;45.73;;;22.73;;
4434;SDS011;46552;52.150;8.428;2024-03-22T11:48:55;38.53;;;22.50;;
4434;SDS011;46552;52.150;8.428;2024-03-22T11:51:22;37.33;;;20.73;;
4434;SDS011;46552;52.150;8.428;2024-03-22T11:53:49;42.43;;;22.13;;
4434;SDS011;46552;52.150;8.428;2024-03-22T11:56:18;42.83;;;23.30;;
4434;SDS011;46552;52.150;8.428;2024-03-22T11:58:45;48.80;;;24.67;;
4434;SDS011;46552;52.150;8.428;2024-03-22T12:01:14;43.00;;;21.47;;
4434;SDS011;46552;52.150;8.428;2024-03-22T12:03:42;43.23;;;23.70;;
4434;SDS011;46552;52.150;8.428;2024-03-22T12:06:12;39.23;;;24.33;;
4434;SDS011;46552;52.150;8.428;2024-03-22T12:08:40;39.97;;;23.10;;
4434;SDS011;46552;52.150;8.428;2024-03-22T12:11:08;46.57;;;24.70;;
4434;SDS011;46552;52.150;8.428;2024-03-22T12:13:35;44.50;;;24.13;;
4434;SDS011;46552;52.150;8.428;2024-03-22T12:16:04;36.80;;;22.73;;
4434;SDS011;46552;52.150;8.428;2024-03-22T12:18:32;38.13;;;22.20;;
4434;SDS011;46552;52.150;8.428;2024-03-22T12:21:00;42.40;;;24.50;;
4434;SDS011;46552;52.150;8.428;2024-03-22T12:23:28;46.70;;;25.60;;
4434;SDS011;46552;52.150;8.428;2024-03-22T12:25:56;40.57;;;22.73;;
4434;SDS011;46552;52.150;8.428;2024-03-22T12:28:22;41.00;;;23.07;;
4434;SDS011;46552;52.150;8.428;2024-03-22T12:30:50;41.80;;;25.93;;
4434;SDS011;46552;52.150;8.428;2024-03-22T12:33:16;45.10;;;25.17;;
4434;SDS011;46552;52.150;8.428;2024-03-22T12:35:44;42.13;;;24.83;;
4434;SDS011;46552;52.150;8.428;2024-03-22T12:38:10;44.50;;;24.53;;
4434;SDS011;46552;52.150;8.428;2024-03-22T12:40:41;43.80;;;24.10;;
4434;SDS011;46552;52.150;8.428;2024-03-22T12:43:08;43.80;;;24.97;;
4434;SDS011;46552;52.150;8.428;2024-03-22T12:45:37;46.00;;;26.03;;
4434;SDS011;46552;52.150;8.428;2024-03-22T12:48:03;46.07;;;27.37;;
4434;SDS011;46552;52.150;8.428;2024-03-22T12:50:31;50.77;;;27.63;;
4434;SDS011;46552;52.150;8.428;2024-03-22T12:52:58;45.33;;;26.50;;
4434;SDS011;46552;52.150;8.428;2024-03-22T12:55:25;44.97;;;25.50;;
4434;SDS011;46552;52.150;8.428;2024-03-22T12:57:54;50.27;;;26.30;;
4434;SDS011;46552;52.150;8.428;2024-03-22T13:00:22;47.60;;;27.40;;
4434;SDS011;46552;52.150;8.428;2024-03-22T13:02:48;40.57;;;24.10;;
4434;SDS011;46552;52.150;8.428;2024-03-22T13:05:15;37.57;;;22.33;;
4434;SDS011;46552;52.150;8.428;2024-03-22T13:07:41;45.30;;;26.30;;
4434;SDS011;46552;52.150;8.428;2024-03-22T13:10:09;37.73;;;23.80;;
4434;SDS011;46552;52.150;8.428;2024-03-22T13:12:35;39.73;;;23.67;;
4434;SDS011;46552;52.150;8.428;2024-03-22T13:15:05;44.97;;;24.47;;
4434;SDS011;46552;52.150;8.428;2024-03-22T13:17:32;48.43;;;26.27;;
4434;SDS011;46552;52.150;8.428;2024-03-22T13:20:00;43.70;;;25.83;;
4434;SDS011;46552;52.150;8.428;2024-03-22T13:22:26;44.87;;;23.37;;
4434;SDS011;46552;52.150;8.428;2024-03-22T13:24:53;44.60;;;22.77;;
4434;SDS011;46552;52.150;8.428;2024-03-22T13:27:20;43.03;;;22.70;;
4434;SDS011;46552;52.150;8.428;2024-03-22T13:29:48;44.67;;;23.40;;
4434;SDS011;46552;52.150;8.428;2024-03-22T13:32:16;41.37;;;22.83;;
4434;SDS011;46552;52.150;8.428;2024-03-22T13:34:45;38.50;;;21.57;;
4434;SDS011;46552;52.150;8.428;2024-03-22T13:37:11;31.73;;;19.60;;
4434;SDS011;46552;52.150;8.428;2024-03-22T13:39:38;40.43;;;21.50;;
4434;SDS011;46552;52.150;8.428;2024-03-22T13:42:06;38.70;;;20.23;;
4434;SDS011;46552;52.150;8.428;2024-03-22T13:44:34;36.43;;;19.20;;
4434;SDS011;46552;52.150;8.428;2024-03-22T13:47:02;40.93;;;21.20;;
4434;SDS011;46552;52.150;8.428;2024-03-22T13:49:31;38.67;;;21.30;;
4434;SDS011;46552;52.150;8.428;2024-03-22T13:51:58;39.67;;;19.00;;
4434;SDS011;46552;52.150;8.428;2024-03-22T13:54:25;37.47;;;18.77;;
4434;SDS011;46552;52.150;8.428;2024-03-22T13:56:52;32.30;;;18.00;;
4434;SDS011;46552;52.150;8.428;2024-03-22T13:59:19;36.60;;;18.70;;
4434;SDS011;46552;52.150;8.428;2024-03-22T14:01:45;28.50;;;17.87;;
4434;SDS011;46552;52.150;8.428;2024-03-22T14:04:12;34.07;;;18.40;;
4434;SDS011;46552;52.150;8.428;2024-03-22T14:06:41;33.90;;;20.50;;
4434;SDS011;46552;52.150;8.428;2024-03-22T14:09:08;33.50;;;19.10;;
4434;SDS011;46552;52.150;8.428;2024-03-22T14:11:35;44.10;;;20.67;;
4434;SDS011;46552;52.150;8.428;2024-03-22T14:14:02;35.10;;;19.90;;
4434;SDS011;46552;52.150;8.428;2024-03-22T14:16:29;31.00;;;17.27;;
4434;SDS011;46552;52.150;8.428;2024-03-22T14:18:56;37.97;;;19.57;;
4434;SDS011;46552;52.150;8.428;2024-03-22T14:21:22;34.00;;;21.10;;
4434;SDS011;46552;52.150;8.428;2024-03-22T14:23:53;36.03;;;20.60;;
4434;SDS011;46552;52.150;8.428;2024-03-22T14:26:19;39.37;;;21.07;;
4434;SDS011;46552;52.150;8.428;2024-03-22T14:28:46;37.53;;;22.43;;
4434;SDS011;46552;52.150;8.428;2024-03-22T14:31:12;49.57;;;21.40;;
4434;SDS011;46552;52.150;8.428;2024-03-22T14:33:40;41.43;;;21.53;;
4434;SDS011;46552;52.150;8.428;2024-03-22T14:36:08;40.17;;;21.00;;